createdAt,value
2022-09-26T00:01:06.702Z,956.9
2022-09-26T00:02:06.724Z,956.88
2022-09-26T00:03:06.599Z,956.85
2022-09-26T00:05:06.752Z,956.88
2022-09-26T00:07:06.677Z,956.9
2022-09-26T00:08:06.745Z,956.89
2022-09-26T00:09:06.663Z,956.92
2022-09-26T00:10:06.681Z,956.88
2022-09-26T00:11:06.600Z,956.86
2022-09-26T00:12:06.717Z,956.87
2022-09-26T00:13:06.681Z,956.83
2022-09-26T00:14:06.653Z,956.82
2022-09-26T00:15:06.718Z,956.81
2022-09-26T00:16:06.690Z,956.84
2022-09-26T00:17:06.803Z,956.82
2022-09-26T00:18:06.726Z,956.8
2022-09-26T00:19:06.620Z,956.85
2022-09-26T00:20:06.757Z,956.82
2022-09-26T00:21:06.717Z,956.77
2022-09-26T00:22:06.693Z,956.78
2022-09-26T00:23:06.763Z,956.8
2022-09-26T00:24:06.623Z,956.77
2022-09-26T00:25:06.694Z,956.8
2022-09-26T00:26:07.961Z,956.77
2022-09-26T00:28:06.709Z,956.72
2022-09-26T00:29:06.775Z,956.75
2022-09-26T00:31:06.782Z,956.72
2022-09-26T00:32:06.645Z,956.75
2022-09-26T00:33:06.750Z,956.73
2022-09-26T00:36:06.646Z,956.68
2022-09-26T00:39:06.758Z,956.67
2022-09-26T00:40:06.719Z,956.65
2022-09-26T00:41:06.673Z,956.63
2022-09-26T00:43:06.829Z,956.62
2022-09-26T00:44:06.797Z,956.61
2022-09-26T00:45:06.693Z,956.57
2022-09-26T00:46:06.899Z,956.6
2022-09-26T00:47:06.689Z,956.56
2022-09-26T00:48:06.680Z,956.54
2022-09-26T00:49:06.749Z,956.58
2022-09-26T00:50:06.805Z,956.51
2022-09-26T00:53:06.878Z,956.49
2022-09-26T00:54:06.789Z,956.47
2022-09-26T00:55:06.709Z,956.51
2022-09-26T00:56:06.820Z,956.47
2022-09-26T00:57:06.787Z,956.5
2022-09-26T00:58:06.747Z,956.48
2022-09-26T00:59:06.821Z,956.52
2022-09-26T01:00:06.790Z,956.48
2022-09-26T01:01:07.001Z,956.51
2022-09-26T01:02:06.995Z,956.49
2022-09-26T01:03:06.791Z,956.46
2022-09-26T01:06:06.790Z,956.41
2022-09-26T01:07:07.707Z,956.39
2022-09-26T01:08:06.848Z,956.37
2022-09-26T01:09:06.813Z,956.34
2022-09-26T01:12:06.908Z,956.35
2022-09-26T01:13:07.756Z,956.32
2022-09-26T01:14:06.751Z,956.31
2022-09-26T01:15:06.910Z,956.3
2022-09-26T01:16:06.742Z,956.29
2022-09-26T01:17:06.888Z,956.25
2022-09-26T01:18:06.816Z,956.23
2022-09-26T01:19:06.759Z,956.24
2022-09-26T01:20:06.846Z,956.23
2022-09-26T01:22:06.770Z,956.22
2022-09-26T01:25:06.941Z,956.21
2022-09-26T01:26:06.864Z,956.19
2022-09-26T01:27:06.926Z,956.17
2022-09-26T01:28:06.899Z,956.15
2022-09-26T01:29:06.859Z,956.14
2022-09-26T01:31:06.921Z,956.15
2022-09-26T01:33:08.353Z,956.13
2022-09-26T01:34:06.906Z,956.12
2022-09-26T01:35:06.875Z,956.1
2022-09-26T01:36:07.881Z,956.15
2022-09-26T01:37:06.902Z,956.17
2022-09-26T01:38:06.804Z,956.14
2022-09-26T01:39:06.945Z,956.16
2022-09-26T01:40:06.911Z,956.14
2022-09-26T01:41:06.878Z,956.17
2022-09-26T01:42:06.848Z,956.15
2022-09-26T01:43:06.910Z,956.1
2022-09-26T01:45:06.952Z,956.06
2022-09-26T01:46:07.041Z,956.04
2022-09-26T01:47:06.825Z,955.99
2022-09-26T01:49:06.917Z,955.98
2022-09-26T01:50:06.991Z,955.99
2022-09-26T01:53:06.907Z,955.98
2022-09-26T01:54:06.868Z,955.99
2022-09-26T01:55:06.930Z,955.96
2022-09-26T01:56:06.903Z,955.99
2022-09-26T01:57:06.969Z,955.97
2022-09-26T01:58:06.929Z,955.98
2022-09-26T02:00:06.970Z,955.97
2022-09-26T02:01:06.956Z,955.93
2022-09-26T02:02:07.001Z,955.97
2022-09-26T02:03:06.976Z,955.95
2022-09-26T02:04:06.940Z,955.94
2022-09-26T02:05:07.020Z,955.93
2022-09-26T02:07:06.945Z,955.94
2022-09-26T02:09:06.988Z,955.97
2022-09-26T02:10:06.952Z,955.91
2022-09-26T02:11:07.019Z,955.9
2022-09-26T02:15:06.994Z,955.91
2022-09-26T02:16:06.973Z,955.87
2022-09-26T02:18:07.008Z,955.92
2022-09-26T02:19:06.959Z,955.9
2022-09-26T02:20:08.143Z,955.92
2022-09-26T02:21:06.995Z,955.89
2022-09-26T02:22:06.966Z,955.86
2022-09-26T02:23:06.924Z,955.84
2022-09-26T02:24:07.006Z,955.81
2022-09-26T02:25:06.961Z,955.8
2022-09-26T02:27:07.012Z,955.77
2022-09-26T02:28:07.073Z,955.75
2022-09-26T02:29:07.042Z,955.73
2022-09-26T02:30:07.000Z,955.72
2022-09-26T02:33:07.009Z,955.73
2022-09-26T02:35:07.057Z,955.69
2022-09-26T02:36:07.033Z,955.7
2022-09-26T02:37:07.085Z,955.66
2022-09-26T02:39:07.019Z,955.64
2022-09-26T02:40:07.090Z,955.66
2022-09-26T02:41:07.054Z,955.63
2022-09-26T02:42:07.026Z,955.67
2022-09-26T02:43:07.091Z,955.64
2022-09-26T02:44:07.053Z,955.63
2022-09-26T02:45:07.027Z,955.65
2022-09-26T02:46:07.225Z,955.62
2022-09-26T02:47:07.059Z,955.66
2022-09-26T02:48:07.032Z,955.61
2022-09-26T02:49:07.004Z,955.6
2022-09-26T02:50:07.073Z,955.58
2022-09-26T02:51:07.134Z,955.57
2022-09-26T02:52:07.103Z,955.53
2022-09-26T02:53:07.080Z,955.54
2022-09-26T02:55:07.116Z,955.48
2022-09-26T02:56:07.087Z,955.53
2022-09-26T02:57:07.042Z,955.55
2022-09-26T02:58:06.998Z,955.51
2022-09-26T02:59:07.081Z,955.54
2022-09-26T03:02:07.085Z,955.52
2022-09-26T03:03:07.161Z,955.56
2022-09-26T03:05:07.135Z,955.6
2022-09-26T03:06:07.021Z,955.59
2022-09-26T03:07:07.020Z,955.6
2022-09-26T03:08:07.094Z,955.62
2022-09-26T03:09:07.168Z,955.59
2022-09-26T03:10:07.131Z,955.54
2022-09-26T03:11:07.097Z,955.53
2022-09-26T03:12:07.073Z,955.55
2022-09-26T03:13:07.136Z,955.53
2022-09-26T03:14:07.109Z,955.5
2022-09-26T03:15:07.187Z,955.51
2022-09-26T03:16:07.166Z,955.5
2022-09-26T03:18:07.192Z,955.55
2022-09-26T03:19:07.146Z,955.5
2022-09-26T03:20:07.211Z,955.51
2022-09-26T03:21:07.042Z,955.48
2022-09-26T03:23:07.124Z,955.47
2022-09-26T03:24:07.186Z,955.52
2022-09-26T03:25:07.155Z,955.46
2022-09-26T03:26:07.117Z,955.53
2022-09-26T03:27:07.187Z,955.5
2022-09-26T03:28:07.163Z,955.52
2022-09-26T03:29:07.128Z,955.46
2022-09-26T03:30:07.189Z,955.51
2022-09-26T03:31:07.166Z,955.54
2022-09-26T03:32:08.072Z,955.45
2022-09-26T03:33:07.213Z,955.44
2022-09-26T03:34:07.273Z,955.45
2022-09-26T03:35:07.238Z,955.44
2022-09-26T03:36:07.230Z,955.42
2022-09-26T03:38:10.185Z,955.4
2022-09-26T03:39:07.239Z,955.42
2022-09-26T03:40:07.167Z,955.41
2022-09-26T03:42:07.208Z,955.38
2022-09-26T03:43:07.192Z,955.36
2022-09-26T03:44:07.246Z,955.37
2022-09-26T03:45:07.209Z,955.35
2022-09-26T03:46:07.141Z,955.33
2022-09-26T03:47:07.151Z,955.31
2022-09-26T03:48:07.218Z,955.28
2022-09-26T03:49:07.192Z,955.3
2022-09-26T03:50:07.249Z,955.33
2022-09-26T03:51:07.223Z,955.3
2022-09-26T03:52:07.184Z,955.29
2022-09-26T03:53:07.259Z,955.28
2022-09-26T03:54:07.226Z,955.24
2022-09-26T03:55:07.250Z,955.22
2022-09-26T03:58:07.189Z,955.19
2022-09-26T03:59:07.160Z,955.15
2022-09-26T04:00:07.237Z,955.16
2022-09-26T04:02:07.221Z,955.15
2022-09-26T04:03:07.243Z,955.11
2022-09-26T04:06:07.146Z,955.08
2022-09-26T04:08:07.280Z,955.05
2022-09-26T04:09:07.246Z,955.11
2022-09-26T04:10:07.212Z,955.07
2022-09-26T04:11:07.285Z,955.09
2022-09-26T04:12:07.257Z,955.07
2022-09-26T04:13:07.317Z,955.02
2022-09-26T04:14:07.286Z,955.05
2022-09-26T04:15:07.254Z,955.03
2022-09-26T04:17:07.291Z,955
2022-09-26T04:18:07.261Z,954.93
2022-09-26T04:19:07.335Z,954.92
2022-09-26T04:20:07.298Z,954.9
2022-09-26T04:21:09.965Z,954.89
2022-09-26T04:22:07.215Z,954.92
2022-09-26T04:23:07.300Z,954.9
2022-09-26T04:24:07.270Z,954.95
2022-09-26T04:25:07.216Z,954.91
2022-09-26T04:26:07.304Z,954.9
2022-09-26T04:27:07.268Z,954.86
2022-09-26T04:28:07.352Z,954.87
2022-09-26T04:30:07.383Z,954.83
2022-09-26T04:31:07.392Z,954.82
2022-09-26T04:32:07.295Z,954.8
2022-09-26T04:33:07.222Z,954.81
2022-09-26T04:34:07.345Z,954.78
2022-09-26T04:35:07.315Z,954.74
2022-09-26T04:36:07.283Z,954.72
2022-09-26T04:37:07.236Z,954.74
2022-09-26T04:39:07.321Z,954.72
2022-09-26T04:40:07.242Z,954.71
2022-09-26T04:41:07.417Z,954.69
2022-09-26T04:43:07.358Z,954.67
2022-09-26T04:44:07.343Z,954.65
2022-09-26T04:45:08.747Z,954.63
2022-09-26T04:46:07.495Z,954.62
2022-09-26T04:47:07.324Z,954.63
2022-09-26T04:48:08.483Z,954.64
2022-09-26T04:49:07.369Z,954.62
2022-09-26T04:50:07.339Z,954.6
2022-09-26T04:51:07.405Z,954.61
2022-09-26T04:52:07.386Z,954.6
2022-09-26T04:53:07.342Z,954.64
2022-09-26T04:54:07.414Z,954.6
2022-09-26T04:55:07.376Z,954.62
2022-09-26T04:56:07.341Z,954.6
2022-09-26T04:57:07.412Z,954.59
2022-09-26T04:59:07.465Z,954.58
2022-09-26T05:00:07.426Z,954.59
2022-09-26T05:01:07.474Z,954.6
2022-09-26T05:02:07.483Z,954.57
2022-09-26T05:03:07.418Z,954.62
2022-09-26T05:04:07.394Z,954.6
2022-09-26T05:05:07.301Z,954.61
2022-09-26T05:06:07.305Z,954.64
2022-09-26T05:08:08.604Z,954.59
2022-09-26T05:10:07.395Z,954.62
2022-09-26T05:11:07.464Z,954.61
2022-09-26T05:13:07.308Z,954.64
2022-09-26T05:14:08.634Z,954.62
2022-09-26T05:15:07.429Z,954.61
2022-09-26T05:16:07.437Z,954.6
2022-09-26T05:17:07.393Z,954.59
2022-09-26T05:18:07.452Z,954.57
2022-09-26T05:19:07.408Z,954.62
2022-09-26T05:20:07.478Z,954.57
2022-09-26T05:22:07.415Z,954.59
2022-09-26T05:24:07.449Z,954.58
2022-09-26T05:25:07.424Z,954.6
2022-09-26T05:26:07.482Z,954.58
2022-09-26T05:27:07.448Z,954.59
2022-09-26T05:28:07.420Z,954.57
2022-09-26T05:30:07.485Z,954.53
2022-09-26T05:31:07.612Z,954.56
2022-09-26T05:32:07.491Z,954.57
2022-09-26T05:33:07.373Z,954.55
2022-09-26T05:34:07.573Z,954.59
2022-09-26T05:35:07.388Z,954.54
2022-09-26T05:36:07.465Z,954.58
2022-09-26T05:37:07.532Z,954.57
2022-09-26T05:38:07.388Z,954.59
2022-09-26T05:40:08.837Z,954.55
2022-09-26T05:41:07.397Z,954.56
2022-09-26T05:42:07.471Z,954.57
2022-09-26T05:43:07.543Z,954.56
2022-09-26T05:44:07.400Z,954.55
2022-09-26T05:45:07.474Z,954.58
2022-09-26T05:46:07.388Z,954.56
2022-09-26T05:47:07.591Z,954.59
2022-09-26T05:48:07.485Z,954.58
2022-09-26T05:50:07.518Z,954.54
2022-09-26T05:51:07.487Z,954.55
2022-09-26T05:52:07.550Z,954.54
2022-09-26T05:53:07.527Z,954.55
2022-09-26T05:54:07.487Z,954.54
2022-09-26T05:55:11.399Z,954.51
2022-09-26T05:56:07.539Z,954.52
2022-09-26T05:57:07.508Z,954.5
2022-09-26T05:58:07.571Z,954.53
2022-09-26T05:59:07.533Z,954.52
2022-09-26T06:00:07.499Z,954.53
2022-09-26T06:01:07.586Z,954.54
2022-09-26T06:02:07.638Z,954.52
2022-09-26T06:04:07.589Z,954.51
2022-09-26T06:05:07.540Z,954.53
2022-09-26T06:06:07.509Z,954.51
2022-09-26T06:07:07.602Z,954.5
2022-09-26T06:08:07.549Z,954.51
2022-09-26T06:09:07.553Z,954.55
2022-09-26T06:10:07.586Z,954.58
2022-09-26T06:11:07.543Z,954.59
2022-09-26T06:12:07.618Z,954.58
2022-09-26T06:13:07.584Z,954.61
2022-09-26T06:14:07.545Z,954.59
2022-09-26T06:15:07.625Z,954.61
2022-09-26T06:16:07.627Z,954.57
2022-09-26T06:17:07.564Z,954.56
2022-09-26T06:18:07.621Z,954.55
2022-09-26T06:19:07.485Z,954.54
2022-09-26T06:21:07.630Z,954.5
2022-09-26T06:22:07.492Z,954.56
2022-09-26T06:23:07.567Z,954.54
2022-09-26T06:25:07.620Z,954.52
2022-09-26T06:26:07.574Z,954.51
2022-09-26T06:30:07.646Z,954.47
2022-09-26T06:31:07.618Z,954.42
2022-09-26T06:33:07.648Z,954.41
2022-09-26T06:34:07.623Z,954.39
2022-09-26T06:35:07.579Z,954.36
2022-09-26T06:37:07.622Z,954.37
2022-09-26T06:38:07.685Z,954.34
2022-09-26T06:39:07.653Z,954.33
2022-09-26T06:40:07.620Z,954.3
2022-09-26T06:41:07.687Z,954.31
2022-09-26T06:42:07.725Z,954.29
2022-09-26T06:43:07.625Z,954.26
2022-09-26T06:44:07.541Z,954.28
2022-09-26T06:45:07.668Z,954.26
2022-09-26T06:46:07.630Z,954.27
2022-09-26T06:47:07.590Z,954.26
2022-09-26T06:48:07.665Z,954.28
2022-09-26T06:49:07.548Z,954.3
2022-09-26T06:50:07.699Z,954.31
2022-09-26T06:51:07.553Z,954.34
2022-09-26T06:52:07.632Z,954.39
2022-09-26T06:53:10.471Z,954.37
2022-09-26T06:54:07.986Z,954.43
2022-09-26T06:55:07.647Z,954.4
2022-09-26T06:56:07.726Z,954.44
2022-09-26T06:57:10.523Z,954.43
2022-09-26T06:58:07.648Z,954.44
2022-09-26T06:59:07.621Z,954.46
2022-09-26T07:00:07.681Z,954.45
2022-09-26T07:01:07.772Z,954.48
2022-09-26T07:02:07.794Z,954.46
2022-09-26T07:04:07.655Z,954.48
2022-09-26T07:05:07.723Z,954.44
2022-09-26T07:06:07.692Z,954.46
2022-09-26T07:09:11.993Z,954.49
2022-09-26T07:10:07.766Z,954.53
2022-09-26T07:11:30.980Z,954.51
2022-09-26T07:12:15.463Z,954.52
2022-09-26T07:13:07.820Z,954.53
2022-09-26T07:14:07.751Z,954.55
2022-09-26T07:15:07.706Z,954.51
2022-09-26T07:16:07.878Z,954.53
2022-09-26T07:17:07.742Z,954.51
2022-09-26T07:18:07.733Z,954.55
2022-09-26T07:19:07.685Z,954.5
2022-09-26T07:21:07.718Z,954.51
2022-09-26T07:22:07.790Z,954.55
2022-09-26T07:23:07.618Z,954.57
2022-09-26T07:24:07.715Z,954.56
2022-09-26T07:25:07.694Z,954.59
2022-09-26T07:26:07.758Z,954.57
2022-09-26T07:27:07.723Z,954.6
2022-09-26T07:28:07.704Z,954.59
2022-09-26T07:29:07.758Z,954.58
2022-09-26T07:30:07.729Z,954.59
2022-09-26T07:31:07.848Z,954.58
2022-09-26T07:33:07.737Z,954.59
2022-09-26T07:34:07.810Z,954.54
2022-09-26T07:35:07.796Z,954.55
2022-09-26T07:36:07.732Z,954.5
2022-09-26T07:38:07.773Z,954.48
2022-09-26T07:39:07.734Z,954.52
2022-09-26T07:40:09.033Z,954.44
2022-09-26T07:41:07.792Z,954.42
2022-09-26T07:42:09.044Z,954.38
2022-09-26T07:43:19.449Z,954.43
2022-09-26T07:45:29.239Z,954.42
2022-09-26T07:46:07.866Z,954.4
2022-09-26T07:47:07.815Z,954.43
2022-09-26T07:48:07.761Z,954.37
2022-09-26T07:49:07.695Z,954.43
2022-09-26T07:50:07.790Z,954.41
2022-09-26T07:51:09.340Z,954.43
2022-09-26T07:52:08.098Z,954.47
2022-09-26T07:53:07.795Z,954.44
2022-09-26T07:56:07.795Z,954.47
2022-09-26T07:57:12.138Z,954.42
2022-09-26T07:58:07.829Z,954.4
2022-09-26T07:59:07.797Z,954.41
2022-09-26T08:00:07.871Z,954.45
2022-09-26T08:01:07.859Z,954.47
2022-09-26T08:02:07.886Z,954.55
2022-09-26T08:03:07.894Z,954.58
2022-09-26T08:04:07.842Z,954.57
2022-09-26T08:05:07.731Z,954.63
2022-09-26T08:06:07.874Z,954.59
2022-09-26T08:07:07.843Z,954.58
2022-09-26T08:09:07.882Z,954.54
2022-09-26T08:11:07.804Z,954.51
2022-09-26T08:12:07.886Z,954.5
2022-09-26T08:14:07.754Z,954.47
2022-09-26T08:15:07.784Z,954.46
2022-09-26T08:16:07.926Z,954.39
2022-09-26T08:17:11.943Z,954.4
2022-09-26T08:18:07.835Z,954.38
2022-09-26T08:19:07.865Z,954.34
2022-09-26T08:20:07.830Z,954.37
2022-09-26T08:22:07.858Z,954.39
2022-09-26T08:23:07.840Z,954.46
2022-09-26T08:24:08.785Z,954.42
2022-09-26T08:25:07.865Z,954.47
2022-09-26T08:26:07.936Z,954.5
2022-09-26T08:27:07.903Z,954.49
2022-09-26T08:29:07.940Z,954.5
2022-09-26T08:30:07.801Z,954.53
2022-09-26T08:31:07.919Z,954.52
2022-09-26T08:33:07.916Z,954.51
2022-09-26T08:34:07.879Z,954.5
2022-09-26T08:35:07.943Z,954.51
2022-09-26T08:36:07.915Z,954.52
2022-09-26T08:37:07.895Z,954.53
2022-09-26T08:39:07.919Z,954.54
2022-09-26T08:41:07.854Z,954.57
2022-09-26T08:42:07.922Z,954.59
2022-09-26T08:43:07.895Z,954.53
2022-09-26T08:44:07.834Z,954.54
2022-09-26T08:45:07.936Z,954.53
2022-09-26T08:46:07.927Z,954.59
2022-09-26T08:47:07.859Z,954.54
2022-09-26T08:48:07.935Z,954.58
2022-09-26T08:49:07.905Z,954.51
2022-09-26T08:52:07.947Z,954.49
2022-09-26T08:53:07.886Z,954.5
2022-09-26T08:54:07.939Z,954.49
2022-09-26T08:55:08.012Z,954.48
2022-09-26T08:56:07.864Z,954.44
2022-09-26T08:57:07.948Z,954.43
2022-09-26T08:58:07.928Z,954.44
2022-09-26T08:59:07.985Z,954.4
2022-09-26T09:00:07.962Z,954.43
2022-09-26T09:02:08.129Z,954.44
2022-09-26T09:03:07.988Z,954.48
2022-09-26T09:04:08.026Z,954.43
2022-09-26T09:05:07.993Z,954.44
2022-09-26T09:06:07.963Z,954.42
2022-09-26T09:07:08.032Z,954.4
2022-09-26T09:09:07.960Z,954.42
2022-09-26T09:10:08.054Z,954.36
2022-09-26T09:11:08.006Z,954.38
2022-09-26T09:12:07.969Z,954.4
2022-09-26T09:13:08.032Z,954.35
2022-09-26T09:14:08.021Z,954.41
2022-09-26T09:15:24.443Z,954.34
2022-09-26T09:17:08.024Z,954.33
2022-09-26T09:18:11.269Z,954.34
2022-09-26T09:20:08.002Z,954.37
2022-09-26T09:21:07.915Z,954.32
2022-09-26T09:22:08.051Z,954.31
2022-09-26T09:23:08.016Z,954.34
2022-09-26T09:24:08.090Z,954.31
2022-09-26T09:25:07.933Z,954.23
2022-09-26T09:28:08.876Z,954.23
2022-09-26T09:29:10.285Z,954.24
2022-09-26T09:30:15.632Z,954.28
2022-09-26T09:31:08.230Z,954.29
2022-09-26T09:32:08.041Z,954.31
2022-09-26T09:33:08.106Z,954.35
2022-09-26T09:34:07.978Z,954.37
2022-09-26T09:35:08.034Z,954.38
2022-09-26T09:36:07.993Z,954.41
2022-09-26T09:37:08.089Z,954.35
2022-09-26T09:38:08.045Z,954.34
2022-09-26T09:39:07.987Z,954.29
2022-09-26T09:41:08.095Z,954.24
2022-09-26T09:43:08.076Z,954.25
2022-09-26T09:44:08.052Z,954.22
2022-09-26T09:45:08.108Z,954.19
2022-09-26T09:46:08.088Z,954.21
2022-09-26T09:47:07.975Z,954.19
2022-09-26T09:49:08.093Z,954.16
2022-09-26T09:50:08.044Z,954.1
2022-09-26T09:51:08.119Z,954.17
2022-09-26T09:52:08.086Z,954.14
2022-09-26T09:53:08.160Z,954.17
2022-09-26T09:54:07.984Z,954.11
2022-09-26T09:58:08.093Z,954.03
2022-09-26T09:59:08.061Z,954.02
2022-09-26T10:00:09.321Z,953.99
2022-09-26T10:01:08.105Z,953.94
2022-09-26T10:02:08.060Z,953.95
2022-09-26T10:03:08.203Z,953.91
2022-09-26T10:04:08.107Z,953.92
2022-09-26T10:06:11.702Z,953.91
2022-09-26T10:07:08.110Z,953.93
2022-09-26T10:08:08.183Z,953.94
2022-09-26T10:09:36.172Z,953.89
2022-09-26T10:10:08.114Z,953.9
2022-09-26T10:11:08.038Z,953.88
2022-09-26T10:12:08.152Z,953.83
2022-09-26T10:14:08.191Z,953.81
2022-09-26T10:15:08.153Z,953.8
2022-09-26T10:16:08.119Z,953.81
2022-09-26T10:17:08.117Z,953.78
2022-09-26T10:18:23.316Z,953.76
2022-09-26T10:20:08.191Z,953.74
2022-09-26T10:21:08.158Z,953.71
2022-09-26T10:22:08.128Z,953.64
2022-09-26T10:23:08.100Z,953.62
2022-09-26T10:24:08.168Z,953.63
2022-09-26T10:26:08.201Z,953.58
2022-09-26T10:28:08.187Z,953.53
2022-09-26T10:29:08.236Z,953.52
2022-09-26T10:30:08.179Z,953.5
2022-09-26T10:31:08.094Z,953.52
2022-09-26T10:32:08.089Z,953.51
2022-09-26T10:33:08.100Z,953.49
2022-09-26T10:34:09.608Z,953.48
2022-09-26T10:37:08.100Z,953.47
2022-09-26T10:38:08.100Z,953.5
2022-09-26T10:39:08.109Z,953.49
2022-09-26T10:40:08.260Z,953.51
2022-09-26T10:41:08.314Z,953.52
2022-09-26T10:42:08.120Z,953.5
2022-09-26T10:43:08.262Z,953.52
2022-09-26T10:44:08.229Z,953.51
2022-09-26T10:46:08.151Z,953.45
2022-09-26T10:47:08.130Z,953.54
2022-09-26T10:48:08.226Z,953.46
2022-09-26T10:49:08.267Z,953.47
2022-09-26T10:50:08.119Z,953.49
2022-09-26T10:51:08.206Z,953.46
2022-09-26T10:52:08.132Z,953.51
2022-09-26T10:53:08.136Z,953.52
2022-09-26T10:55:09.153Z,953.48
2022-09-26T10:56:08.162Z,953.47
2022-09-26T10:57:08.201Z,953.45
2022-09-26T10:58:11.494Z,953.43
2022-09-26T10:59:08.257Z,953.41
2022-09-26T11:00:08.218Z,953.39
2022-09-26T11:02:08.296Z,953.37
2022-09-26T11:04:08.270Z,953.34
2022-09-26T11:05:08.251Z,953.33
2022-09-26T11:06:08.323Z,953.31
2022-09-26T11:07:08.185Z,953.33
2022-09-26T11:08:08.264Z,953.32
2022-09-26T11:09:08.335Z,953.29
2022-09-26T11:10:08.305Z,953.3
2022-09-26T11:11:08.271Z,953.28
2022-09-26T11:12:08.333Z,953.26
2022-09-26T11:13:08.301Z,953.24
2022-09-26T11:14:08.276Z,953.22
2022-09-26T11:15:08.345Z,953.2
2022-09-26T11:16:08.375Z,953.19
2022-09-26T11:18:12.271Z,953.12
2022-09-26T11:19:08.306Z,953.11
2022-09-26T11:20:08.277Z,953.08
2022-09-26T11:21:18.376Z,953.09
2022-09-26T11:23:08.273Z,953.08
2022-09-26T11:25:08.334Z,953.05
2022-09-26T11:26:08.209Z,953.11
2022-09-26T11:28:08.430Z,953.15
2022-09-26T11:29:08.297Z,953.17
2022-09-26T11:30:08.281Z,953.14
2022-09-26T11:31:08.297Z,953.12
2022-09-26T11:32:08.288Z,953.15
2022-09-26T11:33:08.363Z,953.1
2022-09-26T11:35:08.347Z,953
2022-09-26T11:36:08.250Z,952.9
2022-09-26T11:37:08.331Z,952.87
2022-09-26T11:38:08.298Z,952.89
2022-09-26T11:39:08.405Z,952.84
2022-09-26T11:40:09.883Z,952.78
2022-09-26T11:41:08.408Z,952.75
2022-09-26T11:42:08.386Z,952.79
2022-09-26T11:43:08.346Z,952.69
2022-09-26T11:44:08.308Z,952.67
2022-09-26T11:45:08.378Z,952.74
2022-09-26T11:46:08.382Z,952.79
2022-09-26T11:48:08.490Z,952.78
2022-09-26T11:50:08.437Z,952.73
2022-09-26T11:51:08.392Z,952.64
2022-09-26T11:52:08.286Z,952.61
2022-09-26T11:53:08.419Z,952.58
2022-09-26T11:54:08.478Z,952.59
2022-09-26T11:55:08.369Z,952.54
2022-09-26T11:58:08.383Z,952.51
2022-09-26T11:59:08.437Z,952.52
2022-09-26T12:00:08.408Z,952.48
2022-09-26T12:01:08.365Z,952.47
2022-09-26T12:03:08.536Z,952.44
2022-09-26T12:04:08.450Z,952.41
2022-09-26T12:07:08.466Z,952.53
2022-09-26T12:08:08.317Z,952.57
2022-09-26T12:09:08.320Z,952.48
2022-09-26T12:11:08.357Z,952.5
2022-09-26T12:12:08.426Z,952.41
2022-09-26T12:13:08.384Z,952.35
2022-09-26T12:14:08.360Z,952.31
2022-09-26T12:15:08.425Z,952.21
2022-09-26T12:16:08.433Z,952.16
2022-09-26T12:17:08.460Z,952.06
2022-09-26T12:18:08.340Z,952.04
2022-09-26T12:19:11.560Z,952.03
2022-09-26T12:20:08.466Z,952.02
2022-09-26T12:21:08.439Z,951.96
2022-09-26T12:22:08.411Z,952.03
2022-09-26T12:23:08.468Z,952.06
2022-09-26T12:25:08.510Z,952
2022-09-26T12:26:08.482Z,951.95
2022-09-26T12:27:08.383Z,951.93
2022-09-26T12:28:08.501Z,951.97
2022-09-26T12:29:08.377Z,951.93
2022-09-26T12:30:08.437Z,951.91
2022-09-26T12:31:08.575Z,951.92
2022-09-26T12:32:08.382Z,951.87
2022-09-26T12:33:08.455Z,951.77
2022-09-26T12:34:08.534Z,951.74
2022-09-26T12:35:08.385Z,951.76
2022-09-26T12:36:08.445Z,951.74
2022-09-26T12:37:08.621Z,951.69
2022-09-26T12:38:08.483Z,951.68
2022-09-26T12:39:08.391Z,951.66
2022-09-26T12:40:08.466Z,951.7
2022-09-26T12:41:08.393Z,951.67
2022-09-26T12:44:08.496Z,951.66
2022-09-26T12:45:08.568Z,951.57
2022-09-26T12:46:08.573Z,951.58
2022-09-26T12:47:08.496Z,951.6
2022-09-26T12:48:08.463Z,951.61
2022-09-26T12:49:08.533Z,951.67
2022-09-26T12:51:08.573Z,951.66
2022-09-26T12:52:08.544Z,951.64
2022-09-26T12:53:08.501Z,951.6
2022-09-26T12:54:08.439Z,951.59
2022-09-26T12:55:08.424Z,951.65
2022-09-26T12:56:08.515Z,951.58
2022-09-26T12:57:08.583Z,951.57
2022-09-26T12:58:08.556Z,951.59
2022-09-26T12:59:08.517Z,951.6
2022-09-26T13:00:08.636Z,951.61
2022-09-26T13:01:08.561Z,951.62
2022-09-26T13:02:08.598Z,951.67
2022-09-26T13:03:08.609Z,951.75
2022-09-26T13:04:08.560Z,951.76
2022-09-26T13:05:08.621Z,951.7
2022-09-26T13:06:08.916Z,951.72
2022-09-26T13:07:18.682Z,951.65
2022-09-26T13:08:08.468Z,951.66
2022-09-26T13:09:08.707Z,951.61
2022-09-26T13:11:08.631Z,951.59
2022-09-26T13:13:08.484Z,951.52
2022-09-26T13:14:08.641Z,951.53
2022-09-26T13:15:08.609Z,951.49
2022-09-26T13:16:08.637Z,951.45
2022-09-26T13:17:08.636Z,951.46
2022-09-26T13:18:08.607Z,951.45
2022-09-26T13:19:08.643Z,951.41
2022-09-26T13:21:08.494Z,951.38
2022-09-26T13:22:08.577Z,951.35
2022-09-26T13:23:08.661Z,951.37
2022-09-26T13:24:08.618Z,951.42
2022-09-26T13:26:08.658Z,951.36
2022-09-26T13:28:08.590Z,951.38
2022-09-26T13:29:16.990Z,951.33
2022-09-26T13:30:08.707Z,951.42
2022-09-26T13:31:08.598Z,951.45
2022-09-26T13:32:08.662Z,951.42
2022-09-26T13:33:08.631Z,951.43
2022-09-26T13:34:08.624Z,951.45
2022-09-26T13:35:08.661Z,951.41
2022-09-26T13:36:08.629Z,951.32
2022-09-26T13:37:08.596Z,951.39
2022-09-26T13:39:08.693Z,951.37
2022-09-26T13:40:08.618Z,951.38
2022-09-26T13:41:08.659Z,951.36
2022-09-26T13:42:08.642Z,951.38
2022-09-26T13:43:08.612Z,951.35
2022-09-26T13:44:08.662Z,951.32
2022-09-26T13:45:08.647Z,951.29
2022-09-26T13:47:08.687Z,951.27
2022-09-26T13:48:08.646Z,951.25
2022-09-26T13:49:08.733Z,951.27
2022-09-26T13:50:08.689Z,951.25
2022-09-26T13:51:08.705Z,951.26
2022-09-26T13:52:08.584Z,951.23
2022-09-26T13:53:08.688Z,951.19
2022-09-26T13:56:08.700Z,951.14
2022-09-26T13:58:08.739Z,951.19
2022-09-26T13:59:08.703Z,951.21
2022-09-26T14:00:08.671Z,951.23
2022-09-26T14:01:08.706Z,951.18
2022-09-26T14:02:08.699Z,951.17
2022-09-26T14:04:08.769Z,951.2
2022-09-26T14:05:08.705Z,951.19
2022-09-26T14:08:08.706Z,951.13
2022-09-26T14:09:08.611Z,951.17
2022-09-26T14:10:08.645Z,951.12
2022-09-26T14:11:08.742Z,951.17
2022-09-26T14:12:08.785Z,951.11
2022-09-26T14:13:08.764Z,951.06
2022-09-26T14:14:08.828Z,951.03
2022-09-26T14:15:08.689Z,951
2022-09-26T14:16:08.847Z,951.03
2022-09-26T14:17:08.726Z,951.06
2022-09-26T14:18:08.802Z,951.03
2022-09-26T14:20:08.732Z,951.01
2022-09-26T14:21:08.637Z,950.99
2022-09-26T14:22:08.760Z,950.94
2022-09-26T14:24:08.811Z,950.89
2022-09-26T14:25:08.661Z,950.9
2022-09-26T14:26:08.735Z,950.86
2022-09-26T14:28:08.778Z,950.89
2022-09-26T14:29:08.840Z,950.83
2022-09-26T14:30:08.813Z,950.82
2022-09-26T14:31:08.850Z,950.76
2022-09-26T14:32:08.746Z,950.78
2022-09-26T14:33:08.715Z,950.79
2022-09-26T14:34:08.779Z,950.75
2022-09-26T14:35:08.743Z,950.74
2022-09-26T14:37:08.780Z,950.7
2022-09-26T14:38:08.752Z,950.69
2022-09-26T14:39:08.842Z,950.7
2022-09-26T14:40:08.806Z,950.68
2022-09-26T14:41:08.800Z,950.64
2022-09-26T14:42:08.730Z,950.65
2022-09-26T14:43:08.794Z,950.64
2022-09-26T14:44:08.804Z,950.61
2022-09-26T14:46:08.844Z,950.62
2022-09-26T14:47:08.754Z,950.57
2022-09-26T14:48:08.738Z,950.6
2022-09-26T14:49:08.719Z,950.59
2022-09-26T14:50:08.770Z,950.57
2022-09-26T14:51:08.839Z,950.58
2022-09-26T14:52:11.203Z,950.54
2022-09-26T14:53:09.067Z,950.56
2022-09-26T14:55:08.824Z,950.58
2022-09-26T14:56:08.876Z,950.55
2022-09-26T14:59:08.780Z,950.5
2022-09-26T15:00:08.757Z,950.51
2022-09-26T15:01:08.870Z,950.53
2022-09-26T15:02:09.069Z,950.58
2022-09-26T15:03:08.967Z,950.6